sensor_id;sensor_type;location;lat;lon;timestamp;P1;durP1;ratioP1;P2;durP2;ratioP2
75603;SDS011;64187;51.010;13.792;2024-02-21T00:02:54;9.02;;;2.28;;
75603;SDS011;64187;51.010;13.792;2024-02-21T00:07:58;10.43;;;2.72;;
75603;SDS011;64187;51.010;13.792;2024-02-21T00:12:58;6.95;;;2.08;;
75603;SDS011;64187;51.010;13.792;2024-02-21T00:17:58;10.00;;;2.42;;
75603;SDS011;64187;51.010;13.792;2024-02-21T00:22:57;6.20;;;2.10;;
75603;SDS011;64187;51.010;13.792;2024-02-21T00:27:56;7.20;;;2.40;;
75603;SDS011;64187;51.010;13.792;2024-02-21T00:32:55;5.97;;;2.05;;
75603;SDS011;64187;51.010;13.792;2024-02-21T00:37:54;10.07;;;2.88;;
75603;SDS011;64187;51.010;13.792;2024-02-21T00:42:52;8.65;;;2.10;;
75603;SDS011;64187;51.010;13.792;2024-02-21T00:47:51;8.77;;;2.42;;
75603;SDS011;64187;51.010;13.792;2024-02-21T00:52:51;6.30;;;2.40;;
75603;SDS011;64187;51.010;13.792;2024-02-21T00:57:50;5.00;;;1.77;;
75603;SDS011;64187;51.010;13.792;2024-02-21T01:02:49;9.35;;;2.40;;
75603;SDS011;64187;51.010;13.792;2024-02-21T01:07:51;4.75;;;2.53;;
75603;SDS011;64187;51.010;13.792;2024-02-21T01:12:50;8.45;;;2.45;;
75603;SDS011;64187;51.010;13.792;2024-02-21T01:17:49;8.50;;;2.95;;
75603;SDS011;64187;51.010;13.792;2024-02-21T01:22:53;7.65;;;2.45;;
75603;SDS011;64187;51.010;13.792;2024-02-21T01:27:52;9.02;;;2.10;;
75603;SDS011;64187;51.010;13.792;2024-02-21T01:32:51;5.43;;;2.13;;
75603;SDS011;64187;51.010;13.792;2024-02-21T01:37:50;4.93;;;2.17;;
75603;SDS011;64187;51.010;13.792;2024-02-21T01:42:50;8.18;;;1.80;;
75603;SDS011;64187;51.010;13.792;2024-02-21T01:47:52;8.80;;;2.00;;
75603;SDS011;64187;51.010;13.792;2024-02-21T01:52:51;7.38;;;2.08;;
75603;SDS011;64187;51.010;13.792;2024-02-21T01:57:50;6.22;;;2.10;;
75603;SDS011;64187;51.010;13.792;2024-02-21T02:02:49;6.93;;;2.20;;
75603;SDS011;64187;51.010;13.792;2024-02-21T02:07:49;5.57;;;1.83;;
75603;SDS011;64187;51.010;13.792;2024-02-21T02:12:48;9.43;;;2.70;;
75603;SDS011;64187;51.010;13.792;2024-02-21T02:17:47;6.47;;;2.25;;
75603;SDS011;64187;51.010;13.792;2024-02-21T02:22:46;9.98;;;2.65;;
75603;SDS011;64187;51.010;13.792;2024-02-21T02:27:46;7.40;;;2.70;;
75603;SDS011;64187;51.010;13.792;2024-02-21T02:32:45;10.90;;;2.80;;
75603;SDS011;64187;51.010;13.792;2024-02-21T02:37:49;7.45;;;2.17;;
75603;SDS011;64187;51.010;13.792;2024-02-21T02:42:49;8.45;;;2.30;;
75603;SDS011;64187;51.010;13.792;2024-02-21T02:47:48;7.30;;;2.40;;
75603;SDS011;64187;51.010;13.792;2024-02-21T02:52:47;7.78;;;2.63;;
75603;SDS011;64187;51.010;13.792;2024-02-21T02:57:47;9.38;;;2.47;;
75603;SDS011;64187;51.010;13.792;2024-02-21T03:02:46;7.93;;;2.30;;
75603;SDS011;64187;51.010;13.792;2024-02-21T03:07:48;4.25;;;1.88;;
75603;SDS011;64187;51.010;13.792;2024-02-21T03:12:50;11.50;;;2.50;;
75603;SDS011;64187;51.010;13.792;2024-02-21T03:17:51;6.65;;;2.58;;
75603;SDS011;64187;51.010;13.792;2024-02-21T03:22:50;9.68;;;2.67;;
75603;SDS011;64187;51.010;13.792;2024-02-21T03:27:49;8.48;;;2.10;;
75603;SDS011;64187;51.010;13.792;2024-02-21T03:32:48;6.00;;;2.33;;
75603;SDS011;64187;51.010;13.792;2024-02-21T03:37:47;10.85;;;3.38;;
75603;SDS011;64187;51.010;13.792;2024-02-21T03:42:46;5.70;;;1.65;;
75603;SDS011;64187;51.010;13.792;2024-02-21T03:47:45;7.55;;;1.73;;
75603;SDS011;64187;51.010;13.792;2024-02-21T03:52:44;7.80;;;2.70;;
75603;SDS011;64187;51.010;13.792;2024-02-21T03:57:43;11.95;;;3.30;;
75603;SDS011;64187;51.010;13.792;2024-02-21T04:02:42;6.50;;;2.40;;
75603;SDS011;64187;51.010;13.792;2024-02-21T04:07:41;6.03;;;2.53;;
75603;SDS011;64187;51.010;13.792;2024-02-21T04:12:40;7.90;;;2.67;;
75603;SDS011;64187;51.010;13.792;2024-02-21T04:17:39;4.57;;;2.08;;
75603;SDS011;64187;51.010;13.792;2024-02-21T04:22:38;9.18;;;2.38;;
75603;SDS011;64187;51.010;13.792;2024-02-21T04:27:41;8.18;;;2.50;;
75603;SDS011;64187;51.010;13.792;2024-02-21T04:32:40;5.95;;;2.20;;
75603;SDS011;64187;51.010;13.792;2024-02-21T04:37:39;8.73;;;2.92;;
75603;SDS011;64187;51.010;13.792;2024-02-21T04:42:38;9.95;;;2.55;;
75603;SDS011;64187;51.010;13.792;2024-02-21T04:47:37;11.68;;;2.50;;
75603;SDS011;64187;51.010;13.792;2024-02-21T04:52:36;6.78;;;2.28;;
75603;SDS011;64187;51.010;13.792;2024-02-21T04:57:35;9.57;;;2.80;;
75603;SDS011;64187;51.010;13.792;2024-02-21T05:02:34;9.68;;;2.88;;
75603;SDS011;64187;51.010;13.792;2024-02-21T05:07:34;8.70;;;3.00;;
75603;SDS011;64187;51.010;13.792;2024-02-21T05:12:33;9.00;;;2.33;;
75603;SDS011;64187;51.010;13.792;2024-02-21T05:17:32;8.10;;;2.90;;
75603;SDS011;64187;51.010;13.792;2024-02-21T05:22:31;8.85;;;2.53;;
75603;SDS011;64187;51.010;13.792;2024-02-21T05:27:31;9.35;;;2.65;;
75603;SDS011;64187;51.010;13.792;2024-02-21T05:32:29;8.45;;;2.50;;
75603;SDS011;64187;51.010;13.792;2024-02-21T05:37:29;7.13;;;2.25;;
75603;SDS011;64187;51.010;13.792;2024-02-21T05:42:28;7.35;;;2.35;;
75603;SDS011;64187;51.010;13.792;2024-02-21T05:47:27;4.97;;;2.80;;
75603;SDS011;64187;51.010;13.792;2024-02-21T05:52:26;5.30;;;1.92;;
75603;SDS011;64187;51.010;13.792;2024-02-21T05:57:24;4.57;;;1.92;;
75603;SDS011;64187;51.010;13.792;2024-02-21T06:02:23;8.15;;;2.38;;
75603;SDS011;64187;51.010;13.792;2024-02-21T06:07:22;9.15;;;2.25;;
75603;SDS011;64187;51.010;13.792;2024-02-21T06:12:25;6.70;;;2.47;;
75603;SDS011;64187;51.010;13.792;2024-02-21T06:17:35;7.50;;;2.80;;
75603;SDS011;64187;51.010;13.792;2024-02-21T06:22:39;7.43;;;3.20;;
75603;SDS011;64187;51.010;13.792;2024-02-21T06:27:38;7.10;;;2.60;;
75603;SDS011;64187;51.010;13.792;2024-02-21T06:32:37;8.38;;;2.70;;
75603;SDS011;64187;51.010;13.792;2024-02-21T06:37:36;7.00;;;2.58;;
75603;SDS011;64187;51.010;13.792;2024-02-21T06:42:37;9.18;;;3.00;;
75603;SDS011;64187;51.010;13.792;2024-02-21T06:47:37;9.77;;;2.78;;
75603;SDS011;64187;51.010;13.792;2024-02-21T06:52:36;7.55;;;2.88;;
75603;SDS011;64187;51.010;13.792;2024-02-21T06:57:35;7.68;;;2.45;;
75603;SDS011;64187;51.010;13.792;2024-02-21T07:02:34;6.70;;;2.65;;
75603;SDS011;64187;51.010;13.792;2024-02-21T07:07:33;6.82;;;2.45;;
75603;SDS011;64187;51.010;13.792;2024-02-21T07:12:34;6.97;;;2.50;;
75603;SDS011;64187;51.010;13.792;2024-02-21T07:17:34;6.47;;;2.13;;
75603;SDS011;64187;51.010;13.792;2024-02-21T07:22:33;5.85;;;2.10;;
75603;SDS011;64187;51.010;13.792;2024-02-21T07:27:32;5.60;;;2.10;;
75603;SDS011;64187;51.010;13.792;2024-02-21T07:32:34;5.47;;;2.53;;
75603;SDS011;64187;51.010;13.792;2024-02-21T07:37:34;6.95;;;2.42;;
75603;SDS011;64187;51.010;13.792;2024-02-21T07:42:33;4.72;;;2.05;;
75603;SDS011;64187;51.010;13.792;2024-02-21T07:47:32;6.13;;;2.22;;
75603;SDS011;64187;51.010;13.792;2024-02-21T07:52:32;8.57;;;3.13;;
75603;SDS011;64187;51.010;13.792;2024-02-21T07:57:31;11.52;;;2.53;;
75603;SDS011;64187;51.010;13.792;2024-02-21T08:02:30;3.80;;;2.25;;
75603;SDS011;64187;51.010;13.792;2024-02-21T08:07:30;6.30;;;2.20;;
75603;SDS011;64187;51.010;13.792;2024-02-21T08:12:30;8.15;;;2.10;;
75603;SDS011;64187;51.010;13.792;2024-02-21T08:17:29;7.47;;;3.28;;
75603;SDS011;64187;51.010;13.792;2024-02-21T08:22:29;5.88;;;2.60;;
75603;SDS011;64187;51.010;13.792;2024-02-21T08:27:29;7.97;;;2.42;;
75603;SDS011;64187;51.010;13.792;2024-02-21T08:32:28;5.45;;;2.60;;
75603;SDS011;64187;51.010;13.792;2024-02-21T08:37:28;9.32;;;2.22;;
75603;SDS011;64187;51.010;13.792;2024-02-21T08:42:27;9.10;;;1.98;;
75603;SDS011;64187;51.010;13.792;2024-02-21T08:47:30;5.70;;;2.15;;
75603;SDS011;64187;51.010;13.792;2024-02-21T08:52:30;6.07;;;2.50;;
75603;SDS011;64187;51.010;13.792;2024-02-21T08:57:29;4.45;;;1.83;;
75603;SDS011;64187;51.010;13.792;2024-02-21T09:02:37;3.85;;;2.25;;
75603;SDS011;64187;51.010;13.792;2024-02-21T09:07:41;6.07;;;2.50;;
75603;SDS011;64187;51.010;13.792;2024-02-21T09:12:40;6.57;;;2.00;;
75603;SDS011;64187;51.010;13.792;2024-02-21T09:17:39;7.15;;;2.45;;
75603;SDS011;64187;51.010;13.792;2024-02-21T09:22:38;5.88;;;2.58;;
75603;SDS011;64187;51.010;13.792;2024-02-21T09:27:39;8.32;;;2.97;;
75603;SDS011;64187;51.010;13.792;2024-02-21T09:32:38;8.80;;;2.58;;
75603;SDS011;64187;51.010;13.792;2024-02-21T09:37:38;9.77;;;2.45;;
75603;SDS011;64187;51.010;13.792;2024-02-21T09:42:38;7.30;;;2.40;;
75603;SDS011;64187;51.010;13.792;2024-02-21T09:52:51;8.30;;;2.75;;
75603;SDS011;64187;51.010;13.792;2024-02-21T09:57:51;9.15;;;2.40;;
75603;SDS011;64187;51.010;13.792;2024-02-21T10:02:52;7.40;;;2.38;;
75603;SDS011;64187;51.010;13.792;2024-02-21T10:07:51;7.65;;;3.05;;
75603;SDS011;64187;51.010;13.792;2024-02-21T10:12:50;5.13;;;2.72;;
75603;SDS011;64187;51.010;13.792;2024-02-21T10:17:59;10.18;;;2.53;;
75603;SDS011;64187;51.010;13.792;2024-02-21T10:23:03;5.55;;;2.10;;
75603;SDS011;64187;51.010;13.792;2024-02-21T10:28:07;7.22;;;2.53;;
75603;SDS011;64187;51.010;13.792;2024-02-21T10:33:06;7.93;;;2.65;;
75603;SDS011;64187;51.010;13.792;2024-02-21T10:38:06;6.45;;;2.30;;
75603;SDS011;64187;51.010;13.792;2024-02-21T10:43:04;6.63;;;2.53;;
75603;SDS011;64187;51.010;13.792;2024-02-21T10:48:11;5.05;;;2.60;;
75603;SDS011;64187;51.010;13.792;2024-02-21T10:53:19;6.13;;;2.17;;
75603;SDS011;64187;51.010;13.792;2024-02-21T11:03:29;4.18;;;1.92;;
75603;SDS011;64187;51.010;13.792;2024-02-21T11:08:28;8.40;;;2.15;;
75603;SDS011;64187;51.010;13.792;2024-02-21T11:13:31;6.30;;;2.35;;
75603;SDS011;64187;51.010;13.792;2024-02-21T11:18:33;4.55;;;2.13;;
75603;SDS011;64187;51.010;13.792;2024-02-21T11:23:32;6.50;;;2.00;;
75603;SDS011;64187;51.010;13.792;2024-02-21T11:28:32;7.75;;;2.70;;
75603;SDS011;64187;51.010;13.792;2024-02-21T11:33:30;6.07;;;2.47;;
75603;SDS011;64187;51.010;13.792;2024-02-21T11:38:33;7.88;;;2.15;;
75603;SDS011;64187;51.010;13.792;2024-02-21T11:43:32;7.38;;;2.13;;
75603;SDS011;64187;51.010;13.792;2024-02-21T11:48:31;8.82;;;2.60;;
75603;SDS011;64187;51.010;13.792;2024-02-21T11:53:30;4.90;;;1.63;;
75603;SDS011;64187;51.010;13.792;2024-02-21T11:58:33;4.22;;;2.15;;
75603;SDS011;64187;51.010;13.792;2024-02-21T12:03:32;5.72;;;2.20;;
75603;SDS011;64187;51.010;13.792;2024-02-21T12:08:41;4.32;;;1.80;;
75603;SDS011;64187;51.010;13.792;2024-02-21T12:13:41;4.95;;;2.38;;
75603;SDS011;64187;51.010;13.792;2024-02-21T12:18:40;3.53;;;1.55;;
75603;SDS011;64187;51.010;13.792;2024-02-21T12:23:39;4.72;;;2.20;;
75603;SDS011;64187;51.010;13.792;2024-02-21T12:28:39;5.03;;;1.80;;
75603;SDS011;64187;51.010;13.792;2024-02-21T12:33:38;3.25;;;1.88;;
75603;SDS011;64187;51.010;13.792;2024-02-21T12:38:38;3.10;;;1.48;;
75603;SDS011;64187;51.010;13.792;2024-02-21T12:43:37;4.25;;;2.10;;
75603;SDS011;64187;51.010;13.792;2024-02-21T12:48:36;5.40;;;1.73;;
75603;SDS011;64187;51.010;13.792;2024-02-21T12:53:35;3.30;;;1.42;;
75603;SDS011;64187;51.010;13.792;2024-02-21T12:58:34;4.75;;;2.13;;
75603;SDS011;64187;51.010;13.792;2024-02-21T13:03:34;5.20;;;1.88;;
75603;SDS011;64187;51.010;13.792;2024-02-21T13:08:33;4.00;;;2.10;;
75603;SDS011;64187;51.010;13.792;2024-02-21T13:13:33;4.18;;;1.80;;
75603;SDS011;64187;51.010;13.792;2024-02-21T13:18:34;3.97;;;1.67;;
75603;SDS011;64187;51.010;13.792;2024-02-21T13:23:34;3.67;;;1.50;;
75603;SDS011;64187;51.010;13.792;2024-02-21T13:28:32;5.78;;;2.58;;
75603;SDS011;64187;51.010;13.792;2024-02-21T13:33:31;5.05;;;2.75;;
75603;SDS011;64187;51.010;13.792;2024-02-21T13:38:30;5.90;;;2.05;;
75603;SDS011;64187;51.010;13.792;2024-02-21T13:43:30;4.90;;;2.10;;
75603;SDS011;64187;51.010;13.792;2024-02-21T13:48:29;4.20;;;1.98;;
75603;SDS011;64187;51.010;13.792;2024-02-21T13:53:29;5.40;;;1.90;;
75603;SDS011;64187;51.010;13.792;2024-02-21T13:58:28;5.45;;;2.33;;
75603;SDS011;64187;51.010;13.792;2024-02-21T14:03:27;4.50;;;2.10;;
75603;SDS011;64187;51.010;13.792;2024-02-21T14:08:26;3.75;;;2.03;;
75603;SDS011;64187;51.010;13.792;2024-02-21T14:13:25;3.88;;;2.25;;
75603;SDS011;64187;51.010;13.792;2024-02-21T14:18:23;3.30;;;2.13;;
75603;SDS011;64187;51.010;13.792;2024-02-21T14:23:23;7.07;;;2.15;;
75603;SDS011;64187;51.010;13.792;2024-02-21T14:28:22;6.22;;;2.13;;
75603;SDS011;64187;51.010;13.792;2024-02-21T14:33:21;3.95;;;2.08;;
75603;SDS011;64187;51.010;13.792;2024-02-21T14:38:20;7.57;;;2.92;;
75603;SDS011;64187;51.010;13.792;2024-02-21T14:43:19;4.50;;;2.58;;
75603;SDS011;64187;51.010;13.792;2024-02-21T14:48:20;6.43;;;2.60;;
75603;SDS011;64187;51.010;13.792;2024-02-21T14:53:20;7.38;;;2.20;;
75603;SDS011;64187;51.010;13.792;2024-02-21T14:58:19;5.30;;;2.35;;
75603;SDS011;64187;51.010;13.792;2024-02-21T15:03:18;6.90;;;2.20;;
75603;SDS011;64187;51.010;13.792;2024-02-21T15:08:20;5.70;;;3.15;;
75603;SDS011;64187;51.010;13.792;2024-02-21T15:13:19;5.15;;;2.22;;
75603;SDS011;64187;51.010;13.792;2024-02-21T15:18:18;3.97;;;2.30;;
75603;SDS011;64187;51.010;13.792;2024-02-21T15:23:17;8.43;;;2.65;;
75603;SDS011;64187;51.010;13.792;2024-02-21T15:28:16;4.13;;;2.25;;
75603;SDS011;64187;51.010;13.792;2024-02-21T15:33:15;4.13;;;2.10;;
75603;SDS011;64187;51.010;13.792;2024-02-21T15:38:14;4.07;;;2.10;;
75603;SDS011;64187;51.010;13.792;2024-02-21T15:43:13;10.60;;;3.45;;
75603;SDS011;64187;51.010;13.792;2024-02-21T15:48:12;8.07;;;2.95;;
75603;SDS011;64187;51.010;13.792;2024-02-21T15:53:12;7.85;;;3.35;;
75603;SDS011;64187;51.010;13.792;2024-02-21T15:58:11;7.80;;;3.33;;
75603;SDS011;64187;51.010;13.792;2024-02-21T16:03:11;8.13;;;2.88;;
75603;SDS011;64187;51.010;13.792;2024-02-21T16:08:12;5.15;;;3.15;;
75603;SDS011;64187;51.010;13.792;2024-02-21T16:13:11;8.80;;;3.53;;
75603;SDS011;64187;51.010;13.792;2024-02-21T16:18:10;7.25;;;3.28;;
75603;SDS011;64187;51.010;13.792;2024-02-21T16:23:09;9.10;;;3.67;;
75603;SDS011;64187;51.010;13.792;2024-02-21T16:28:09;10.77;;;4.22;;
75603;SDS011;64187;51.010;13.792;2024-02-21T16:33:08;7.63;;;4.50;;
75603;SDS011;64187;51.010;13.792;2024-02-21T16:38:07;9.68;;;4.40;;
75603;SDS011;64187;51.010;13.792;2024-02-21T16:43:11;9.57;;;4.88;;
75603;SDS011;64187;51.010;13.792;2024-02-21T16:48:10;9.40;;;4.20;;
75603;SDS011;64187;51.010;13.792;2024-02-21T16:53:09;8.60;;;4.32;;
75603;SDS011;64187;51.010;13.792;2024-02-21T16:58:08;9.70;;;4.10;;
75603;SDS011;64187;51.010;13.792;2024-02-21T17:03:08;13.02;;;5.05;;
75603;SDS011;64187;51.010;13.792;2024-02-21T17:08:07;12.57;;;4.32;;
75603;SDS011;64187;51.010;13.792;2024-02-21T17:13:08;7.60;;;3.80;;
75603;SDS011;64187;51.010;13.792;2024-02-21T17:18:07;7.43;;;4.30;;
75603;SDS011;64187;51.010;13.792;2024-02-21T17:23:06;13.63;;;4.40;;
75603;SDS011;64187;51.010;13.792;2024-02-21T17:28:05;8.75;;;4.13;;
75603;SDS011;64187;51.010;13.792;2024-02-21T17:33:05;13.95;;;5.00;;
75603;SDS011;64187;51.010;13.792;2024-02-21T17:38:07;10.43;;;4.90;;
75603;SDS011;64187;51.010;13.792;2024-02-21T17:43:08;9.98;;;5.43;;
75603;SDS011;64187;51.010;13.792;2024-02-21T17:48:07;13.80;;;6.65;;
75603;SDS011;64187;51.010;13.792;2024-02-21T17:53:06;15.95;;;6.75;;
75603;SDS011;64187;51.010;13.792;2024-02-21T17:58:06;15.55;;;8.02;;
75603;SDS011;64187;51.010;13.792;2024-02-21T18:03:06;17.05;;;8.85;;
75603;SDS011;64187;51.010;13.792;2024-02-21T18:08:08;22.95;;;10.35;;
75603;SDS011;64187;51.010;13.792;2024-02-21T18:13:08;24.17;;;9.38;;
75603;SDS011;64187;51.010;13.792;2024-02-21T18:18:08;21.23;;;8.90;;
75603;SDS011;64187;51.010;13.792;2024-02-21T18:23:07;15.43;;;7.70;;
75603;SDS011;64187;51.010;13.792;2024-02-21T18:28:07;17.52;;;7.97;;
75603;SDS011;64187;51.010;13.792;2024-02-21T18:33:06;18.58;;;7.80;;
75603;SDS011;64187;51.010;13.792;2024-02-21T18:38:05;14.60;;;7.68;;
75603;SDS011;64187;51.010;13.792;2024-02-21T18:43:04;16.08;;;7.82;;
75603;SDS011;64187;51.010;13.792;2024-02-21T18:48:03;14.70;;;8.23;;
75603;SDS011;64187;51.010;13.792;2024-02-21T18:53:02;11.82;;;7.43;;
75603;SDS011;64187;51.010;13.792;2024-02-21T18:58:02;13.48;;;7.07;;
75603;SDS011;64187;51.010;13.792;2024-02-21T19:03:01;15.27;;;7.90;;
75603;SDS011;64187;51.010;13.792;2024-02-21T19:08:00;16.67;;;9.80;;
75603;SDS011;64187;51.010;13.792;2024-02-21T19:12:59;20.35;;;11.27;;
75603;SDS011;64187;51.010;13.792;2024-02-21T19:17:58;19.30;;;11.45;;
75603;SDS011;64187;51.010;13.792;2024-02-21T19:22:57;13.93;;;8.55;;
75603;SDS011;64187;51.010;13.792;2024-02-21T19:27:56;14.13;;;7.43;;
75603;SDS011;64187;51.010;13.792;2024-02-21T19:32:56;11.13;;;6.85;;
75603;SDS011;64187;51.010;13.792;2024-02-21T19:37:57;14.13;;;7.22;;
75603;SDS011;64187;51.010;13.792;2024-02-21T19:43:01;13.65;;;7.47;;
75603;SDS011;64187;51.010;13.792;2024-02-21T19:48:01;13.50;;;7.82;;
75603;SDS011;64187;51.010;13.792;2024-02-21T19:53:00;11.05;;;6.28;;
75603;SDS011;64187;51.010;13.792;2024-02-21T19:58:00;9.32;;;6.05;;
75603;SDS011;64187;51.010;13.792;2024-02-21T20:02:59;12.25;;;5.90;;
75603;SDS011;64187;51.010;13.792;2024-02-21T20:07:59;9.13;;;4.43;;
75603;SDS011;64187;51.010;13.792;2024-02-21T20:12:59;6.53;;;4.38;;
75603;SDS011;64187;51.010;13.792;2024-02-21T20:17:57;8.75;;;4.70;;
75603;SDS011;64187;51.010;13.792;2024-02-21T20:22:58;7.80;;;4.80;;
75603;SDS011;64187;51.010;13.792;2024-02-21T20:27:57;7.40;;;3.92;;
75603;SDS011;64187;51.010;13.792;2024-02-21T20:32:56;7.90;;;4.35;;
75603;SDS011;64187;51.010;13.792;2024-02-21T20:37:55;8.77;;;4.40;;
75603;SDS011;64187;51.010;13.792;2024-02-21T20:42:54;6.45;;;4.20;;
75603;SDS011;64187;51.010;13.792;2024-02-21T20:47:53;5.57;;;3.55;;
75603;SDS011;64187;51.010;13.792;2024-02-21T20:52:52;9.43;;;4.20;;
75603;SDS011;64187;51.010;13.792;2024-02-21T20:57:51;9.05;;;5.30;;
75603;SDS011;64187;51.010;13.792;2024-02-21T21:02:50;3.20;;;1.98;;
75603;SDS011;64187;51.010;13.792;2024-02-21T21:07:49;5.43;;;3.17;;
75603;SDS011;64187;51.010;13.792;2024-02-21T21:12:48;6.68;;;3.85;;
75603;SDS011;64187;51.010;13.792;2024-02-21T21:17:48;8.50;;;3.38;;
75603;SDS011;64187;51.010;13.792;2024-02-21T21:22:47;6.80;;;2.85;;
75603;SDS011;64187;51.010;13.792;2024-02-21T21:27:46;6.72;;;2.88;;
75603;SDS011;64187;51.010;13.792;2024-02-21T21:32:45;4.30;;;2.85;;
75603;SDS011;64187;51.010;13.792;2024-02-21T21:37:44;4.72;;;2.33;;
75603;SDS011;64187;51.010;13.792;2024-02-21T21:42:45;6.65;;;2.88;;
75603;SDS011;64187;51.010;13.792;2024-02-21T21:47:44;4.85;;;2.30;;
75603;SDS011;64187;51.010;13.792;2024-02-21T21:52:43;4.40;;;2.40;;
75603;SDS011;64187;51.010;13.792;2024-02-21T21:57:44;4.97;;;2.67;;
75603;SDS011;64187;51.010;13.792;2024-02-21T22:02:43;5.85;;;2.83;;
75603;SDS011;64187;51.010;13.792;2024-02-21T22:07:46;5.35;;;2.70;;
75603;SDS011;64187;51.010;13.792;2024-02-21T22:12:46;7.07;;;3.22;;
75603;SDS011;64187;51.010;13.792;2024-02-21T22:17:45;6.68;;;3.03;;
75603;SDS011;64187;51.010;13.792;2024-02-21T22:22:44;4.55;;;2.88;;
75603;SDS011;64187;51.010;13.792;2024-02-21T22:27:43;5.72;;;2.33;;
75603;SDS011;64187;51.010;13.792;2024-02-21T22:32:42;4.90;;;2.53;;
75603;SDS011;64187;51.010;13.792;2024-02-21T22:37:41;9.60;;;3.20;;
75603;SDS011;64187;51.010;13.792;2024-02-21T22:42:41;6.03;;;2.13;;
75603;SDS011;64187;51.010;13.792;2024-02-21T22:47:41;5.47;;;2.15;;
75603;SDS011;64187;51.010;13.792;2024-02-21T22:52:40;5.50;;;2.20;;
75603;SDS011;64187;51.010;13.792;2024-02-21T22:57:39;4.15;;;2.03;;
75603;SDS011;64187;51.010;13.792;2024-02-21T23:02:41;4.68;;;2.20;;
75603;SDS011;64187;51.010;13.792;2024-02-21T23:07:43;3.30;;;1.98;;
75603;SDS011;64187;51.010;13.792;2024-02-21T23:12:42;3.83;;;2.03;;
75603;SDS011;64187;51.010;13.792;2024-02-21T23:17:42;3.53;;;2.03;;
75603;SDS011;64187;51.010;13.792;2024-02-21T23:22:41;4.57;;;2.33;;
75603;SDS011;64187;51.010;13.792;2024-02-21T23:27:40;2.75;;;0.85;;
75603;SDS011;64187;51.010;13.792;2024-02-21T23:32:40;1.67;;;0.60;;
75603;SDS011;64187;51.010;13.792;2024-02-21T23:37:39;2.40;;;0.57;;
75603;SDS011;64187;51.010;13.792;2024-02-21T23:42:38;1.20;;;0.40;;
75603;SDS011;64187;51.010;13.792;2024-02-21T23:47:37;1.42;;;0.50;;
75603;SDS011;64187;51.010;13.792;2024-02-21T23:52:37;1.50;;;0.30;;
75603;SDS011;64187;51.010;13.792;2024-02-21T23:57:36;1.10;;;0.25;;
